Time;durP1;ratioP1;P1;durP2;ratioP2;P2;SDS_P1;SDS_P2;PMS_P1;PMS_P2;Temp;Humidity;BMP_temperature;BMP_pressure;BME280_temperature;BME280_humidity;BME280_pressure;Samples;Min_cycle;Max_cycle;Signal;HPM_P1;HPM_P2
2022/06/22 00:04:30;;;;;;;7.05;2.25;;;;;;;13.79;83.36;100246.97;3487938;81;99198;-91
2022/06/22 00:09:36;;;;;;;5.13;2.03;;;;;;;13.77;83.73;100248.75;3485788;82;106472;-92
2022/06/22 00:14:48;;;;;;;6.35;2.30;;;;;;;13.74;83.94;100249.53;3498156;82;99127;-92
2022/06/22 00:19:50;;;;;;;8.00;2.65;;;;;;;13.68;83.79;100249.77;3492830;82;98606;-91
2022/06/22 00:25:03;;;;;;;7.33;2.23;;;;;;;13.57;83.88;100244.88;3457957;82;98944;-91
2022/06/22 00:30:30;;;;;;;5.37;2.12;;;;;;;13.54;84.39;100251.22;3494364;82;98848;-91
2022/06/22 00:35:46;;;;;;;5.62;2.27;;;;;;;13.54;84.39;100255.95;3485153;81;98912;-91
2022/06/22 00:40:54;;;;;;;;;;;;;;;13.49;84.47;100251.63;3487862;82;99025;-91
2022/06/22 00:45:57;;;;;;;7.78;2.37;;;;;;;13.43;85.62;100246.33;3485769;82;85066;-91
2022/06/22 00:51:08;;;;;;;18.55;3.85;;;;;;;13.40;84.68;100254.64;3498026;83;33368;-90
2022/06/22 00:56:33;;;;;;;6.50;2.77;;;;;;;13.21;84.92;100242.05;3483478;83;98768;-90
2022/06/22 01:02:06;;;;;;;7.28;2.35;;;;;;;13.30;84.93;100263.73;3490759;83;99714;-90
2022/06/22 01:07:33;;;;;;;6.58;2.62;;;;;;;13.21;84.57;100261.97;3486638;82;98892;-90
2022/06/22 01:13:04;;;;;;;5.20;2.45;;;;;;;13.14;85.17;100249.56;3482693;82;98849;-90
2022/06/22 01:18:17;;;;;;;7.40;2.47;;;;;;;13.11;85.41;100261.40;3477837;83;98981;-90
2022/06/22 01:23:35;;;;;;;4.95;2.52;;;;;;;13.09;85.54;100260.41;3491831;82;98819;-90
2022/06/22 01:28:37;;;;;;;5.43;2.23;;;;;;;13.05;85.84;100274.84;3472787;83;99320;-89
2022/06/22 01:33:48;;;;;;;6.50;2.62;;;;;;;13.01;85.63;100275.44;3503208;82;99280;-89
2022/06/22 01:38:51;;;;;;;6.75;2.77;;;;;;;12.92;85.90;100268.71;3473815;83;98813;-89
2022/06/22 01:43:58;;;;;;;6.30;2.85;;;;;;;12.92;85.90;100268.71;3485458;83;99228;-89
2022/06/22 01:49:07;;;;;;;11.30;3.13;;;;;;;12.77;86.12;100247.23;3476522;83;99083;-89
2022/06/22 01:54:31;;;;;;;8.50;3.10;;;;;;;12.84;86.23;100268.50;3384051;81;99157;-89
2022/06/22 01:59:56;;;;;;;9.77;2.93;;;;;;;12.81;86.22;100267.93;3454536;83;99347;-89
2022/06/22 02:05:05;;;;;;;6.83;2.80;;;;;;;12.74;86.42;100265.15;3413788;83;99050;-89
2022/06/22 02:10:36;;;;;;;6.17;2.77;;;;;;;12.66;86.26;100254.72;3452707;79;98857;-88
2022/06/22 02:16:06;;;;;;;5.20;2.45;;;;;;;12.59;86.06;100257.47;3441419;83;99162;-89
2022/06/22 02:21:34;;;;;;;7.12;2.67;;;;;;;12.57;86.80;100270.09;3449746;82;31488;-89
2022/06/22 02:26:43;;;;;;;7.20;3.40;;;;;;;12.29;86.99;100239.70;3472728;83;98957;-88
2022/06/22 02:31:46;;;;;;;6.42;2.65;;;;;;;12.29;86.99;100239.70;3464179;83;99268;-88
2022/06/22 02:36:51;;;;;;;8.68;3.10;;;;;;;12.29;87.17;100238.33;3446223;82;99294;-88
2022/06/22 02:47:31;;;;;;;6.70;2.92;;;;;;;12.45;87.62;100258.05;3447867;82;98996;-88
2022/06/22 02:52:49;;;;;;;6.87;3.20;;;;;;;12.45;87.59;100258.86;3454589;83;98904;-88
2022/06/22 02:57:58;;;;;;;7.00;2.90;;;;;;;12.45;87.75;100260.81;3453542;82;98831;-88
2022/06/22 03:03:12;;;;;;;6.15;2.92;;;;;;;12.42;87.65;100267.91;3467790;83;32625;-88
2022/06/22 03:08:14;;;;;;;6.53;3.35;;;;;;;12.38;87.50;100261.59;3479798;82;98712;-89
2022/06/22 03:13:25;;;;;;;11.60;3.83;;;;;;;12.39;88.03;100260.44;3464507;83;98344;-88
2022/06/22 03:18:30;;;;;;;10.10;3.30;;;;;;;12.33;87.96;100243.27;3441757;83;99057;-88
2022/06/22 03:23:53;;;;;;;6.67;3.17;;;;;;;12.35;87.85;100245.83;3453342;83;99419;-87
2022/06/22 03:29:15;;;;;;;9.28;3.35;;;;;;;12.38;88.31;100247.79;3435595;81;99186;-88
2022/06/22 03:34:26;;;;;;;7.67;2.87;;;;;;;12.38;88.48;100246.41;3466643;83;99475;-88
2022/06/22 03:39:31;;;;;;;10.90;3.40;;;;;;;12.29;88.32;100225.91;3461236;79;99293;-89
2022/06/22 03:44:40;;;;;;;7.37;3.03;;;;;;;12.44;88.42;100253.72;3462244;83;28525;-89
2022/06/22 03:50:08;;;;;;;8.45;3.15;;;;;;;12.47;88.62;100250.96;3480619;83;98667;-88
2022/06/22 03:55:31;;;;;;;9.50;3.60;;;;;;;12.48;88.28;100251.77;3480108;83;98839;-89
2022/06/22 04:00:35;;;;;;;7.75;3.10;;;;;;;12.49;88.56;100252.73;3479163;83;32523;-89
2022/06/22 04:05:44;;;;;;;8.25;3.25;;;;;;;12.53;88.64;100257.66;3488201;83;99482;-90
2022/06/22 04:11:00;;;;;;;6.90;3.27;;;;;;;12.58;88.77;100247.61;3467842;82;98833;-89
2022/06/22 04:16:07;;;;;;;8.10;3.40;;;;;;;12.64;88.93;100249.40;3482914;83;99077;-90
2022/06/22 04:21:12;;;;;;;8.50;3.30;;;;;;;12.68;88.94;100247.41;3497567;82;33128;-91
2022/06/22 04:26:19;;;;;;;7.17;3.13;;;;;;;12.73;88.79;100241.48;3488625;82;98527;-91
2022/06/22 04:31:23;;;;;;;;;;;;;;;12.80;88.93;100251.17;3486507;83;98772;-90
2022/06/22 04:36:37;;;;;;;7.28;3.20;;;;;;;12.84;89.65;100245.03;3474140;82;85234;-91
2022/06/22 04:41:41;;;;;;;14.47;3.87;;;;;;;12.89;88.97;100247.39;3476605;83;99316;-94
2022/06/22 04:46:47;;;;;;;11.60;3.72;;;;;;;12.95;88.17;100246.61;3475269;83;99254;-94
2022/06/22 04:51:56;;;;;;;7.47;3.10;;;;;;;13.01;87.83;100252.53;3484682;82;99077;-91
2022/06/22 04:57:04;;;;;;;6.95;3.02;;;;;;;13.11;87.30;100257.25;3482792;82;98915;-93
2022/06/22 05:02:10;;;;;;;6.05;2.67;;;;;;;13.31;87.43;100268.08;3476019;83;98723;-94
2022/06/22 05:07:43;;;;;;;5.60;2.55;;;;;;;13.52;87.50;100274.31;3473035;83;98889;-93
2022/06/22 05:13:00;;;;;;;8.53;2.72;;;;;;;13.77;87.44;100270.87;3479115;83;98883;-95
2022/06/22 05:18:09;;;;;;;7.67;2.70;;;;;;;14.13;87.58;100275.63;3477278;83;98870;-94
2022/06/22 05:23:10;;;;;;;7.50;2.52;;;;;;;14.62;86.98;100273.95;3485696;82;99582;-92
2022/06/22 05:28:19;;;;;;;7.10;2.70;;;;;;;15.21;86.28;100278.17;3477437;83;99373;-91
2022/06/22 05:33:25;;;;;;;9.90;2.58;;;;;;;15.89;86.14;100278.39;3483017;82;32540;-91
2022/06/22 05:38:31;;;;;;;5.87;2.40;;;;;;;16.72;85.81;100270.05;3471955;80;98477;-92
2022/06/22 05:43:33;;;;;;;8.10;2.30;;;;;;;17.67;84.41;100276.89;3483909;82;98668;-93
2022/06/22 05:48:42;;;;;;;5.08;2.05;;;;;;;18.61;83.47;100280.99;3459180;82;98853;-91
2022/06/22 05:54:03;;;;;;;7.60;3.25;;;;;;;19.47;80.36;100281.20;3474177;82;98912;-91
2022/06/22 05:59:19;;;;;;;7.17;2.62;;;;;;;20.29;77.62;100276.41;3469347;83;98802;-89
2022/06/22 06:04:32;;;;;;;26.42;7.17;;;;;;;21.00;73.63;100283.32;3484247;83;98511;-91
2022/06/22 06:09:34;;;;;;;6.25;2.00;;;;;;;21.85;72.66;100279.12;3474989;80;98622;-92
2022/06/22 06:14:42;;;;;;;9.23;2.05;;;;;;;22.46;71.69;100282.73;3475822;83;99150;-93
2022/06/22 06:19:48;;;;;;;5.67;2.10;;;;;;;23.18;69.28;100281.59;3481458;83;98804;-93
2022/06/22 06:30:31;;;;;;;9.18;2.22;;;;;;;24.38;65.54;100286.19;3482449;83;98240;-91
2022/06/22 06:35:43;;;;;;;5.97;1.75;;;;;;;24.93;65.41;100287.52;3465372;83;98924;-89
2022/06/22 06:41:05;;;;;;;20.43;5.97;;;;;;;25.71;62.78;100282.92;3481046;83;98907;-88
2022/06/22 06:46:31;;;;;;;4.37;1.75;;;;;;;26.06;60.60;100284.64;3476908;82;99317;-89
2022/06/22 06:51:36;;;;;;;4.40;1.70;;;;;;;26.41;57.94;100287.52;3480461;83;99187;-90
2022/06/22 06:56:42;;;;;;;6.55;1.70;;;;;;;26.72;55.09;100292.82;3481042;83;98555;-90
2022/06/22 07:01:45;;;;;;;14.18;4.25;;;;;;;27.16;55.13;100296.91;3481147;83;98711;-89
2022/06/22 07:06:46;;;;;;;24.67;14.18;;;;;;;27.61;52.66;100301.25;3472454;83;99006;-90
2022/06/22 07:11:59;;;;;;;5.67;1.80;;;;;;;27.93;51.43;100300.09;3476464;83;99219;-90
2022/06/22 07:17:09;;;;;;;3.67;1.90;;;;;;;28.25;51.84;100298.08;3470614;83;98810;-89
2022/06/22 07:22:31;;;;;;;7.50;2.22;;;;;;;28.56;50.80;100298.89;3483274;79;98847;-91
2022/06/22 07:27:50;;;;;;;4.03;1.87;;;;;;;28.90;49.11;100302.11;3480831;83;98880;-95
2022/06/22 07:32:59;;;;;;;3.85;1.50;;;;;;;29.27;46.51;100307.77;3485683;83;27033;-88
2022/06/22 07:38:33;;;;;;;5.33;1.52;;;;;;;29.36;44.74;100308.31;3479863;83;99129;-93
2022/06/22 07:43:34;;;;;;;6.75;2.08;;;;;;;29.51;45.20;100308.91;3483169;83;98285;-90
2022/06/22 07:48:40;;;;;;;5.50;1.77;;;;;;;29.75;44.01;100316.36;3471799;82;99060;-93
2022/06/22 07:53:59;;;;;;;6.90;1.50;;;;;;;29.83;42.35;100322.32;3480826;83;98920;-93
2022/06/22 07:59:10;;;;;;;4.72;1.20;;;;;;;29.55;42.15;100317.98;3483200;82;98901;-96
2022/06/22 08:04:22;;;;;;;12.78;2.60;;;;;;;29.37;41.46;100319.03;3480790;83;98798;-93
2022/06/22 08:09:54;;;;;;;4.72;1.47;;;;;;;29.46;40.15;100321.00;3474817;83;98753;-91
2022/06/22 08:14:56;;;;;;;6.00;1.65;;;;;;;29.36;39.66;100316.83;3486293;83;98823;-90
2022/06/22 08:19:58;;;;;;;6.75;1.57;;;;;;;29.44;40.58;100313.66;3490272;83;98722;-93
2022/06/22 08:25:02;;;;;;;6.10;1.55;;;;;;;29.84;39.83;100313.94;3480465;83;99086;-93
2022/06/22 08:30:06;;;;;;;5.87;1.90;;;;;;;30.32;39.21;100311.73;3493539;82;98912;-94
2022/06/22 08:35:26;;;;;;;4.70;1.45;;;;;;;30.20;38.13;100307.34;3480968;82;98923;-89
2022/06/22 08:40:50;;;;;;;5.10;1.55;;;;;;;30.32;37.35;100299.73;3485841;83;98879;-95
2022/06/22 08:46:23;;;;;;;5.17;1.37;;;;;;;31.32;37.29;100293.32;3472705;82;98885;-94
2022/06/22 08:51:47;;;;;;;3.62;1.20;;;;;;;31.32;37.29;100293.32;3476636;83;27485;-94
2022/06/22 08:57:05;;;;;;;4.35;1.20;;;;;;;30.69;35.09;100298.86;3481836;83;98967;-90
2022/06/22 09:02:58;;;;;;;8.23;2.10;;;;;;;31.22;34.69;100283.53;3426304;82;99149;-93
2022/06/22 09:08:24;;;;;;;2.17;1.35;;;;;;;31.24;34.39;100288.03;3447253;83;98980;-92
2022/06/22 09:13:39;;;;;;;7.20;1.90;;;;;;;31.84;34.10;100287.79;3474993;82;98798;-92
2022/06/22 09:18:53;;;;;;;3.45;1.50;;;;;;;32.08;34.13;100282.19;3467165;83;99319;-90
2022/06/22 09:24:08;;;;;;;4.47;1.50;;;;;;;32.36;34.38;100277.08;3465883;83;97973;-90
2022/06/22 09:29:40;;;;;;;5.22;1.50;;;;;;;32.96;33.32;100278.60;3459900;82;99301;-92
2022/06/22 09:35:14;;;;;;;4.95;1.15;;;;;;;33.31;32.66;100270.59;3460557;79;98558;-92
2022/06/22 09:40:46;;;;;;;4.30;1.10;;;;;;;33.46;32.00;100275.20;3467286;81;98794;-95
2022/06/22 09:46:20;;;;;;;3.42;1.30;;;;;;;33.57;33.39;100263.64;3473666;82;98886;-90
2022/06/22 09:52:09;;;;;;;4.22;1.77;;;;;;;34.26;32.08;100255.85;3425568;84;27442;-90
2022/06/22 09:57:31;;;;;;;3.42;1.30;;;;;;;34.55;32.25;100252.02;3444465;83;98667;-90
2022/06/22 10:02:49;;;;;;;4.12;1.45;;;;;;;34.83;29.56;100245.95;3460793;83;98546;-88
2022/06/22 10:08:13;;;;;;;4.72;1.62;;;;;;;33.37;29.75;100243.53;3477374;82;98929;-90
2022/06/22 10:13:23;;;;;;;3.98;1.45;;;;;;;33.49;30.26;100242.72;3475169;83;99025;-91
2022/06/22 10:18:36;;;;;;;3.55;1.30;;;;;;;33.99;30.62;100232.14;3460351;83;98836;-88
2022/06/22 10:24:12;;;;;;;3.42;1.42;;;;;;;34.15;29.05;100241.11;3481859;82;99258;-93
2022/06/22 10:29:31;;;;;;;3.52;1.07;;;;;;;34.19;28.78;100238.71;3480375;82;98948;-88
2022/06/22 10:35:01;;;;;;;2.27;1.25;;;;;;;34.32;30.76;100234.48;3487499;83;99349;-90
2022/06/22 10:45:54;;;;;;;3.95;1.37;;;;;;;35.26;28.81;100226.34;3489663;83;99329;-89
2022/06/22 10:51:09;;;;;;;2.92;1.25;;;;;;;35.54;28.46;100230.05;3480145;83;26845;-88
2022/06/22 10:56:37;;;;;;;4.62;1.52;;;;;;;35.22;28.85;100238.00;3463605;82;98834;-92
2022/06/22 11:02:25;;;;;;;4.45;1.72;;;;;;;35.38;28.32;100234.05;3473432;83;99212;-88
2022/06/22 11:07:40;;;;;;;7.58;1.27;;;;;;;34.93;26.96;100234.16;3476627;82;98705;-90
2022/06/22 11:13:21;;;;;;;5.03;1.85;;;;;;;34.36;30.30;100229.88;3456373;82;99000;-90
2022/06/22 11:18:39;;;;;;;6.03;2.12;;;;;;;35.46;30.86;100236.36;3475780;82;98939;-90
2022/06/22 11:24:01;;;;;;;3.33;1.00;;;;;;;36.16;30.49;100225.98;3485766;82;98108;-90
2022/06/22 11:34:46;;;;;;;6.37;1.60;;;;;;;37.01;29.88;100233.41;3454025;82;99020;-89
2022/06/22 11:40:22;;;;;;;5.28;2.10;;;;;;;36.85;28.50;100230.34;3450786;83;27495;-89
2022/06/22 11:45:50;;;;;;;6.65;1.30;;;;;;;35.99;27.20;100229.93;3477589;83;98737;-94
2022/06/22 11:51:20;;;;;;;5.70;1.20;;;;;;;35.50;28.50;100228.18;3462058;82;27722;-89
2022/06/22 11:56:41;;;;;;;3.15;1.15;;;;;;;36.00;29.92;100217.14;3405990;83;99182;-92
2022/06/22 12:02:10;;;;;;;5.35;1.62;;;;;;;36.74;29.83;100227.00;3398286;84;99277;-91
2022/06/22 12:07:55;;;;;;;2.62;0.95;;;;;;;36.78;29.37;100223.12;3369091;84;99423;-88
2022/06/22 12:13:08;;;;;;;4.03;1.40;;;;;;;36.87;29.60;100229.76;3402576;84;99520;-91
2022/06/22 12:18:31;;;;;;;5.35;1.30;;;;;;;36.53;27.62;100222.72;3379500;84;98854;-88
2022/06/22 12:24:18;;;;;;;5.42;1.25;;;;;;;35.89;28.72;100224.57;3378103;84;99529;-89
2022/06/22 12:29:55;;;;;;;1.57;1.00;;;;;;;35.94;27.37;100225.10;3394785;84;98535;-92
2022/06/22 12:35:17;;;;;;;3.65;1.27;;;;;;;35.74;27.52;100217.92;3384576;84;99486;-91
2022/06/22 12:40:47;;;;;;;4.40;1.25;;;;;;;35.20;25.79;100222.81;3389842;84;98987;-91
2022/06/22 12:45:57;;;;;;;5.58;1.75;;;;;;;34.25;25.45;100209.39;3388698;83;99125;-93
2022/06/22 12:51:14;;;;;;;6.00;1.57;;;;;;;33.89;26.27;100212.44;3387967;85;97812;-89
2022/06/22 12:57:07;;;;;;;2.77;1.00;;;;;;;34.28;26.64;100214.70;3442455;82;98731;-92
2022/06/22 13:02:17;;;;;;;2.92;1.00;;;;;;;34.38;27.84;100201.54;3260269;86;98834;-91
2022/06/22 13:07:20;;;;;;;3.00;0.75;;;;;;;34.57;27.80;100202.99;3256214;89;99110;-91
2022/06/22 13:12:43;;;;;;;4.03;1.30;;;;;;;34.61;26.38;100193.44;3272853;87;98993;-94
2022/06/22 13:18:04;;;;;;;8.50;0.90;;;;;;;34.55;27.22;100189.14;3475611;82;99095;-91
2022/06/22 13:23:45;;;;;;;2.42;1.20;;;;;;;34.50;26.01;100174.29;3482400;83;25930;-93
2022/06/22 13:29:13;;;;;;;3.22;1.07;;;;;;;34.30;27.75;100173.48;3447158;83;98803;-91
2022/06/22 13:34:25;;;;;;;2.45;1.00;;;;;;;34.32;27.12;100171.62;3429225;84;27664;-93
2022/06/22 13:39:35;;;;;;;2.72;1.05;;;;;;;33.82;28.07;100163.11;3443346;83;98613;-94
2022/06/22 13:45:18;;;;;;;1.77;0.90;;;;;;;33.83;28.31;100152.47;3470362;82;98769;-91
2022/06/22 13:50:54;;;;;;;2.62;1.07;;;;;;;33.78;28.27;100144.09;3465830;83;99281;-89
2022/06/22 13:56:05;;;;;;;2.75;0.82;;;;;;;33.84;29.34;100144.01;3429328;83;99211;-91
2022/06/22 14:01:47;;;;;;;3.70;1.00;;;;;;;33.96;31.15;100149.00;3429680;83;26529;-89
2022/06/22 14:07:21;;;;;;;2.98;1.10;;;;;;;34.15;29.22;100145.41;3430416;83;98999;-93
2022/06/22 14:12:46;;;;;;;4.05;1.15;;;;;;;33.26;27.62;100136.67;3457680;83;98873;-93
2022/06/22 14:17:58;;;;;;;4.50;1.35;;;;;;;33.35;29.54;100128.41;3440315;83;98789;-89
2022/06/22 14:23:07;;;;;;;3.55;1.32;;;;;;;32.73;27.56;100125.41;3437063;82;97957;-94
2022/06/22 14:28:28;;;;;;;6.65;1.47;;;;;;;32.10;27.29;100120.78;3430806;84;98853;-94
2022/06/22 14:34:14;;;;;;;4.50;1.37;;;;;;;31.74;29.10;100124.33;3432355;84;27538;-92
2022/06/22 14:39:56;;;;;;;2.47;1.02;;;;;;;31.78;28.54;100130.52;3428701;83;98788;-90
2022/06/22 14:45:23;;;;;;;3.52;1.07;;;;;;;31.78;28.65;100121.19;3433749;82;98638;-90
2022/06/22 14:50:59;;;;;;;2.08;1.10;;;;;;;31.56;30.28;100117.84;3426599;83;98744;-93
2022/06/22 14:56:12;;;;;;;2.42;1.10;;;;;;;31.47;31.61;100113.90;3445597;83;98755;-91
2022/06/22 15:01:30;;;;;;;2.77;1.02;;;;;;;31.48;31.97;100100.43;3462831;79;98949;-93
2022/06/22 15:07:04;;;;;;;5.42;1.10;;;;;;;31.43;32.00;100089.89;3430193;80;98757;-91
2022/06/22 15:12:58;;;;;;;1.52;1.05;;;;;;;31.57;32.69;100080.98;3437806;83;98841;-95
2022/06/22 15:18:17;;;;;;;2.43;0.83;;;;;;;31.55;32.04;100084.98;3450294;83;98900;-92
2022/06/22 15:23:32;;;;;;;3.72;1.27;;;;;;;31.54;33.12;100086.96;3450553;83;98935;-91
2022/06/22 15:29:06;;;;;;;2.10;1.00;;;;;;;31.40;31.04;100088.09;3480264;83;98867;-88
2022/06/22 15:34:47;;;;;;;2.55;1.15;;;;;;;30.78;31.54;100084.70;3495177;82;27466;-92
2022/06/22 15:40:17;;;;;;;2.75;1.02;;;;;;;30.67;31.06;100081.90;3504745;82;27390;-93
2022/06/22 15:45:58;;;;;;;2.33;1.20;;;;;;;30.42;30.26;100081.56;3481669;83;99109;-89
2022/06/22 15:51:28;;;;;;;4.58;1.27;;;;;;;30.03;30.47;100073.11;3489662;83;99053;-90
2022/06/22 15:56:49;;;;;;;3.50;1.37;;;;;;;29.71;31.38;100073.93;3467033;83;99099;-87
2022/06/22 16:02:20;;;;;;;3.85;1.17;;;;;;;29.48;30.60;100075.19;3433291;82;98035;-89
2022/06/22 16:07:46;;;;;;;4.22;1.82;;;;;;;29.18;30.42;100073.48;3377147;85;98976;-92
2022/06/22 16:18:47;;;;;;;3.45;1.20;;;;;;;28.24;31.93;100070.11;3483915;82;98939;-90
2022/06/22 16:23:56;;;;;;;6.45;1.27;;;;;;;28.00;32.82;100073.95;3407158;83;98960;-91
2022/06/22 16:29:12;;;;;;;2.98;1.20;;;;;;;27.62;31.66;100072.34;3391690;83;99328;-94
2022/06/22 16:34:39;;;;;;;5.92;1.35;;;;;;;27.32;33.33;100072.48;3415678;85;32525;-94
2022/06/22 16:40:03;;;;;;;3.22;1.35;;;;;;;27.12;33.19;100073.91;3376468;86;28103;-96
2022/06/22 16:45:25;;;;;;;4.20;1.07;;;;;;;26.84;32.98;100062.96;3408534;85;99087;-93
2022/06/22 16:50:47;;;;;;;1.87;1.00;;;;;;;26.68;34.80;100057.11;3409964;85;98540;-94
2022/06/22 16:55:54;;;;;;;4.55;1.42;;;;;;;26.49;35.10;100050.95;3362865;85;99121;-96
2022/06/22 17:01:09;;;;;;;3.90;1.30;;;;;;;26.38;36.27;100057.86;3387929;84;98844;-94
2022/06/22 17:06:21;;;;;;;;;;;;;;;26.24;35.07;100061.55;3342944;86;98822;-91
2022/06/22 17:11:26;;;;;;;5.60;1.35;;;;;;;26.02;35.14;100059.03;3361599;86;84189;-91
2022/06/22 17:16:42;;;;;;;3.02;1.10;;;;;;;25.85;35.65;100061.59;3349221;86;98564;-94
2022/06/22 17:22:06;;;;;;;2.85;1.15;;;;;;;25.64;35.91;100067.02;3357280;86;27456;-95
2022/06/22 17:27:46;;;;;;;3.30;1.30;;;;;;;25.47;35.46;100061.75;3365045;84;98918;-95
2022/06/22 17:33:01;;;;;;;3.60;1.50;;;;;;;25.37;36.62;100063.11;3426592;84;99072;-94
2022/06/22 17:38:28;;;;;;;2.07;1.10;;;;;;;25.28;36.87;100058.97;3416579;83;98588;-92
2022/06/22 17:43:48;;;;;;;4.00;1.25;;;;;;;25.15;38.14;100064.09;3396891;84;98991;-94
2022/06/22 17:48:56;;;;;;;4.17;1.05;;;;;;;25.04;37.72;100065.30;3414520;83;27525;-94
2022/06/22 17:54:02;;;;;;;2.33;1.12;;;;;;;24.94;38.99;100065.23;3449713;83;98769;-92
2022/06/22 17:59:15;;;;;;;4.85;2.10;;;;;;;24.78;38.44;100071.31;3504502;83;98708;-91
2022/06/22 18:04:22;;;;;;;4.37;1.47;;;;;;;24.62;36.94;100073.81;3502962;82;98828;-93
2022/06/22 18:09:37;;;;;;;1.37;1.00;;;;;;;24.47;37.80;100075.77;3512167;82;98004;-94
2022/06/22 18:14:43;;;;;;;5.62;2.00;;;;;;;24.38;39.30;100077.22;3495070;81;99326;-93
2022/06/22 18:19:55;;;;;;;3.37;1.75;;;;;;;24.26;39.86;100088.09;3503747;82;98927;-93
2022/06/22 18:25:03;;;;;;;5.50;2.08;;;;;;;24.13;40.62;100088.96;3495233;82;98513;-94
2022/06/22 18:30:30;;;;;;;4.75;2.02;;;;;;;23.97;41.95;100086.54;3513597;82;98583;-94
2022/06/22 18:35:39;;;;;;;;;;;;;;;23.85;42.94;100095.30;3513282;83;99186;-93
2022/06/22 18:46:40;;;;;;;3.15;1.65;;;;;;;23.55;44.64;100085.73;3511348;83;99271;-93
2022/06/22 18:52:09;;;;;;;4.93;1.70;;;;;;;23.38;45.80;100085.30;3496849;81;99212;-93
2022/06/22 18:57:34;;;;;;;3.17;1.42;;;;;;;23.24;46.63;100091.59;3482919;82;98929;-93
2022/06/22 19:02:55;;;;;;;3.15;1.55;;;;;;;23.08;47.72;100093.91;3437514;83;98838;-93
2022/06/22 19:08:10;;;;;;;4.03;1.62;;;;;;;22.92;48.80;100100.64;3484072;83;99399;-93
2022/06/22 19:13:13;;;;;;;8.13;3.17;;;;;;;22.75;49.14;100109.22;3476489;83;98854;-95
2022/06/22 19:18:31;;;;;;;5.12;2.12;;;;;;;22.62;50.46;100119.03;3481072;83;32461;-94
2022/06/22 19:23:50;;;;;;;3.75;1.75;;;;;;;22.48;51.56;100128.83;3477978;81;98813;-92
2022/06/22 19:29:08;;;;;;;5.45;2.27;;;;;;;22.32;52.38;100127.66;3476014;83;98632;-93
2022/06/22 19:34:30;;;;;;;7.37;2.50;;;;;;;22.17;53.19;100125.28;3405558;83;98929;-92
2022/06/22 19:39:45;;;;;;;8.33;3.58;;;;;;;22.05;53.86;100130.99;3372362;85;98906;-91
2022/06/22 19:44:52;;;;;;;15.50;8.40;;;;;;;21.91;54.57;100134.38;3390731;84;98354;-92
2022/06/22 19:50:17;;;;;;;97.40;63.40;;;;;;;21.74;55.18;100135.86;3393412;84;99164;-90
2022/06/22 19:55:27;;;;;;;176.95;125.95;;;;;;;21.61;55.54;100142.13;3481140;81;104156;-91
2022/06/22 20:00:28;;;;;;;20.88;12.18;;;;;;;21.44;56.39;100142.18;3458381;83;33166;-92
2022/06/22 20:05:44;;;;;;;15.08;7.37;;;;;;;21.28;57.08;100147.38;3450828;81;99570;-91
2022/06/22 20:11:05;;;;;;;31.10;7.35;;;;;;;21.17;57.74;100142.78;3467303;83;98867;-92
2022/06/22 20:16:20;;;;;;;8.55;3.67;;;;;;;21.05;58.33;100149.23;3453969;83;99138;-91
2022/06/22 20:21:38;;;;;;;9.23;3.50;;;;;;;20.91;58.89;100150.33;3457791;83;98880;-91
2022/06/22 20:27:12;;;;;;;7.70;3.50;;;;;;;20.80;59.35;100156.27;3458552;83;98840;-91
2022/06/22 20:32:36;;;;;;;6.78;2.85;;;;;;;20.68;59.76;100165.48;3449584;82;98804;-90
2022/06/22 20:37:41;;;;;;;7.47;2.95;;;;;;;20.54;60.27;100165.95;3468220;83;99505;-91
2022/06/22 20:43:35;;;;;;;5.95;2.52;;;;;;;20.43;60.82;100170.36;3468819;83;98983;-90
2022/06/22 20:49:03;;;;;;;6.80;2.52;;;;;;;20.33;61.34;100178.47;3462933;83;32518;-87
2022/06/22 20:54:21;;;;;;;6.08;2.37;;;;;;;20.16;61.11;100177.03;3457292;82;98575;-87
2022/06/22 20:59:34;;;;;;;4.42;2.15;;;;;;;20.04;62.14;100179.16;3459892;82;98686;-88
2022/06/22 21:04:53;;;;;;;6.03;2.33;;;;;;;19.94;62.69;100186.64;3449917;80;98777;-87
2022/06/22 21:09:55;;;;;;;7.20;2.80;;;;;;;19.85;63.25;100185.15;3479513;83;98908;-87
2022/06/22 21:15:20;;;;;;;4.23;2.27;;;;;;;19.68;63.61;100168.92;3453806;83;99007;-87
2022/06/22 21:20:33;;;;;;;6.47;2.42;;;;;;;19.67;63.73;100190.46;3474561;83;98872;-88
2022/06/22 21:25:34;;;;;;;8.25;2.58;;;;;;;19.55;64.15;100200.20;3459662;82;99426;-87
2022/06/22 21:30:38;;;;;;;5.33;2.40;;;;;;;19.46;64.78;100195.27;3464729;83;32179;-87
2022/06/22 21:35:51;;;;;;;5.80;2.25;;;;;;;19.41;65.38;100195.80;3470908;83;98846;-87
2022/06/22 21:41:21;;;;;;;5.87;2.80;;;;;;;19.34;65.72;100196.02;3484073;83;98802;-88
2022/06/22 21:46:55;;;;;;;6.70;2.62;;;;;;;19.27;65.97;100195.42;3472189;82;98954;-88
2022/06/22 21:52:36;;;;;;;5.40;2.95;;;;;;;19.16;66.48;100197.70;3451434;83;98955;-88
2022/06/22 21:58:01;;;;;;;8.15;2.77;;;;;;;19.07;66.85;100210.88;3478628;82;98994;-88
2022/06/22 22:03:19;;;;;;;6.50;2.60;;;;;;;19.00;67.19;100212.48;3478711;83;98883;-88
2022/06/22 22:08:23;;;;;;;8.25;3.77;;;;;;;18.91;67.55;100209.52;3481543;83;99389;-88
2022/06/22 22:13:30;;;;;;;9.33;3.37;;;;;;;18.84;67.98;100211.70;3489170;83;98872;-86
2022/06/22 22:18:34;;;;;;;6.70;3.15;;;;;;;18.80;68.34;100201.28;3480417;83;33121;-86
2022/06/22 22:23:40;;;;;;;6.60;2.85;;;;;;;18.74;68.61;100205.19;3472658;83;98823;-87
2022/06/22 22:29:01;;;;;;;4.83;2.75;;;;;;;18.70;68.88;100217.66;3481542;83;97903;-86
2022/06/22 22:34:07;;;;;;;7.25;3.10;;;;;;;18.60;68.96;100222.88;3483504;81;98534;-87
2022/06/22 22:39:10;;;;;;;7.50;3.27;;;;;;;18.54;69.41;100223.23;3486352;81;98825;-86
2022/06/22 22:44:16;;;;;;;6.40;2.85;;;;;;;18.47;69.66;100228.99;3477448;82;99314;-86
2022/06/22 22:49:31;;;;;;;6.35;2.95;;;;;;;18.39;70.04;100231.76;3496307;82;99320;-87
2022/06/22 22:54:41;;;;;;;6.97;2.80;;;;;;;18.30;70.20;100225.96;3489388;82;98880;-86
2022/06/22 22:59:46;;;;;;;8.03;3.25;;;;;;;18.24;70.76;100235.45;3485833;82;98650;-86
2022/06/22 23:04:48;;;;;;;7.92;3.20;;;;;;;18.17;70.92;100231.45;3477462;83;98913;-86
2022/06/22 23:09:49;;;;;;;7.72;3.50;;;;;;;18.11;71.24;100229.00;3480712;80;99040;-86
2022/06/22 23:14:50;;;;;;;8.48;3.27;;;;;;;18.08;71.58;100236.02;3479316;82;98937;-87
2022/06/22 23:19:51;;;;;;;5.90;2.92;;;;;;;18.02;71.78;100237.75;3501600;82;98958;-86
2022/06/22 23:25:12;;;;;;;6.25;3.30;;;;;;;17.97;72.01;100234.88;3459141;83;98750;-86
2022/06/22 23:30:28;;;;;;;9.08;3.60;;;;;;;17.91;72.15;100232.42;3473789;82;98599;-87
2022/06/22 23:35:36;;;;;;;8.48;3.65;;;;;;;17.84;72.35;100245.71;3484396;82;99273;-87
2022/06/22 23:40:39;;;;;;;5.45;3.10;;;;;;;17.76;72.69;100241.52;3493142;79;97904;-87
2022/06/22 23:45:41;;;;;;;6.60;2.75;;;;;;;17.70;72.81;100246.00;3473700;82;98949;-87
2022/06/22 23:51:10;;;;;;;7.00;3.15;;;;;;;17.62;73.09;100243.20;3489277;82;98925;-87
2022/06/22 23:56:18;;;;;;;6.47;3.47;;;;;;;17.56;73.30;100248.46;3483671;82;98862;-87
